createdAt,value
2017-08-01T00:01:58.310Z,100091.30
2017-08-01T00:04:25.707Z,100075.33
2017-08-01T00:06:53.111Z,100084.68
2017-08-01T00:09:20.510Z,100085.23
2017-08-01T00:11:47.950Z,100086.61
2017-08-01T00:14:15.345Z,100083.22
2017-08-01T00:16:42.732Z,100079.31
2017-08-01T00:19:10.144Z,100047.78
2017-08-01T00:21:37.534Z,100028.84
2017-08-01T00:24:04.942Z,100027.07
2017-08-01T00:26:32.347Z,100054.57
2017-08-01T00:28:59.758Z,100058.77
2017-08-01T00:31:27.158Z,100051.19
2017-08-01T00:33:54.556Z,100058.89
2017-08-01T00:36:22.105Z,100066.19
2017-08-01T00:38:49.542Z,100067.84
2017-08-01T00:41:16.940Z,100065.39
2017-08-01T00:43:44.342Z,100052.80
2017-08-01T00:46:11.739Z,100056.48
2017-08-01T00:48:39.294Z,100071.77
2017-08-01T00:51:06.698Z,100081.80
2017-08-01T00:53:34.094Z,100091.52
2017-08-01T00:56:01.538Z,100094.90
2017-08-01T00:58:28.934Z,100107.22
2017-08-01T01:00:56.341Z,100125.63
2017-08-01T01:03:23.742Z,100129.53
2017-08-01T01:05:51.134Z,100146.97
2017-08-01T01:08:18.531Z,100156.87
2017-08-01T01:10:45.934Z,100170.38
2017-08-01T01:13:13.330Z,100161.58
2017-08-01T01:15:40.729Z,100148.45
2017-08-01T01:18:08.138Z,100163.22
2017-08-01T01:20:35.535Z,100180.53
2017-08-01T01:23:02.937Z,100186.20
2017-08-01T01:25:30.335Z,100178.64
2017-08-01T01:27:57.734Z,100182.68
2017-08-01T01:30:25.135Z,100173.10
2017-08-01T01:32:52.531Z,100169.42
2017-08-01T01:35:20.310Z,100170.23
2017-08-01T01:37:47.698Z,100164.94
2017-08-01T01:40:15.095Z,100148.18
2017-08-01T01:42:42.494Z,100133.03
2017-08-01T01:45:09.891Z,100135.31
2017-08-01T01:47:37.463Z,100151.16
2017-08-01T01:50:04.854Z,100154.95
2017-08-01T01:52:32.246Z,100158.98
2017-08-01T01:54:59.654Z,100158.30
2017-08-01T01:57:27.047Z,100161.30
2017-08-01T01:59:54.782Z,100158.31
2017-08-01T02:02:22.187Z,100149.00
2017-08-01T02:04:49.587Z,100152.89
2017-08-01T02:07:16.991Z,100146.28
2017-08-01T02:09:44.387Z,100148.71
2017-08-01T02:12:11.934Z,100158.47
2017-08-01T02:14:39.330Z,100162.66
2017-08-01T02:17:06.726Z,100158.87
2017-08-01T02:19:34.134Z,100159.52
2017-08-01T02:22:01.532Z,100143.05
2017-08-01T02:24:28.955Z,100138.44
2017-08-01T02:26:56.346Z,100143.04
2017-08-01T02:29:23.750Z,100143.04
2017-08-01T02:31:51.154Z,100132.77
2017-08-01T02:34:18.549Z,100136.27
2017-08-01T02:36:45.970Z,100136.71
2017-08-01T02:39:13.362Z,100140.09
2017-08-01T02:41:40.759Z,100142.50
2017-08-01T02:44:08.166Z,100136.42
2017-08-01T02:46:35.557Z,100134.80
2017-08-01T02:49:03.275Z,100131.13
2017-08-01T02:51:32.644Z,100130.20
2017-08-01T02:54:00.038Z,100130.19
2017-08-01T02:56:27.439Z,100128.99
2017-08-01T02:58:54.835Z,100124.66
2017-08-01T03:01:22.249Z,100115.46
2017-08-01T03:03:49.634Z,100121.67
2017-08-01T03:06:17.029Z,100130.19
2017-08-01T03:08:44.430Z,100132.36
2017-08-01T03:11:11.818Z,100136.96
2017-08-01T03:13:39.371Z,100147.78
2017-08-01T03:16:06.767Z,100151.55
2017-08-01T03:18:34.171Z,100158.98
2017-08-01T03:21:01.571Z,100152.37
2017-08-01T03:23:28.962Z,100149.80
2017-08-01T03:25:56.510Z,100144.25
2017-08-01T03:28:23.914Z,100140.45
2017-08-01T03:30:51.315Z,100144.93
2017-08-01T03:33:18.718Z,100142.10
2017-08-01T03:35:46.119Z,100132.37
2017-08-01T03:38:13.666Z,100124.39
2017-08-01T03:40:41.058Z,100124.09
2017-08-01T03:43:08.460Z,100126.02
2017-08-01T03:45:35.859Z,100103.84
2017-08-01T03:48:03.254Z,100093.41
2017-08-01T03:50:30.659Z,100101.40
2017-08-01T03:52:58.055Z,100084.77
2017-08-01T03:55:25.451Z,100089.90
2017-08-01T03:57:52.853Z,100075.84
2017-08-01T04:00:20.250Z,100074.77
2017-08-01T04:02:48.018Z,100078.95
2017-08-01T04:05:15.416Z,100092.22
2017-08-01T04:07:42.809Z,100099.11
2017-08-01T04:10:10.205Z,100076.66
2017-08-01T04:12:37.602Z,100060.16
2017-08-01T04:15:05.010Z,100071.94
2017-08-01T04:17:32.407Z,100084.77
2017-08-01T04:19:59.806Z,100091.25
2017-08-01T04:22:27.218Z,100092.23
2017-08-01T04:24:54.635Z,100103.83
2017-08-01T04:27:22.183Z,100109.64
2017-08-01T04:29:49.579Z,100117.61
2017-08-01T04:32:16.974Z,100115.47
2017-08-01T04:34:44.375Z,100106.27
2017-08-01T04:37:11.776Z,100108.02
2017-08-01T04:39:39.439Z,100111.80
2017-08-01T04:42:06.855Z,100123.03
2017-08-01T04:44:46.057Z,100122.37
2017-08-01T04:47:13.449Z,100137.11
2017-08-01T04:49:40.851Z,100146.81
2017-08-01T04:52:08.255Z,100154.26
2017-08-01T04:54:35.655Z,100163.60
2017-08-01T04:57:03.350Z,100170.52
2017-08-01T04:59:30.752Z,100178.23
2017-08-01T05:01:58.146Z,100185.53
2017-08-01T05:04:26.214Z,100182.82
2017-08-01T05:06:53.620Z,100187.94
2017-08-01T05:09:21.174Z,100186.71
2017-08-01T05:11:48.585Z,100189.29
2017-08-01T05:14:15.999Z,100193.59
2017-08-01T05:16:43.402Z,100201.20
2017-08-01T05:19:10.811Z,100200.08
2017-08-01T05:21:38.375Z,100187.77
2017-08-01T05:24:05.824Z,100178.55
2017-08-01T05:26:33.203Z,100171.34
2017-08-01T05:29:00.638Z,100183.83
2017-08-01T05:31:28.070Z,100176.23
2017-08-01T05:33:55.670Z,100167.42
2017-08-01T05:36:23.118Z,100162.59
2017-08-01T05:38:50.562Z,100172.70
2017-08-01T05:41:18.032Z,100164.43
2017-08-01T05:43:45.437Z,100162.64
2017-08-01T05:46:13.017Z,100164.48
2017-08-01T05:48:40.424Z,100184.25
2017-08-01T05:51:07.818Z,100193.28
2017-08-01T05:53:36.092Z,100200.44
2017-08-01T05:56:03.514Z,100196.64
2017-08-01T05:58:31.102Z,100202.05
2017-08-01T06:00:58.511Z,100198.78
2017-08-01T06:03:44.796Z,100204.02
2017-08-01T06:06:20.646Z,100207.25
2017-08-01T06:08:48.383Z,100214.81
2017-08-01T06:11:16.657Z,100217.11
2017-08-01T06:13:44.194Z,100229.20
2017-08-01T06:16:12.923Z,100235.56
2017-08-01T06:18:40.665Z,100247.89
2017-08-01T06:21:08.681Z,100259.41
2017-08-01T06:23:36.839Z,100266.72
2017-08-01T06:26:04.325Z,100266.86
2017-08-01T06:28:31.802Z,100276.77
2017-08-01T06:30:59.602Z,100285.39
2017-08-01T06:33:27.067Z,100306.15
2017-08-01T06:35:55.236Z,100325.52
2017-08-01T06:38:23.378Z,100333.13
2017-08-01T06:40:50.834Z,100322.16
2017-08-01T06:43:18.933Z,100330.83
2017-08-01T06:45:46.376Z,100329.32
2017-08-01T06:48:14.582Z,100325.06
2017-08-01T06:50:41.983Z,100321.52
2017-08-01T06:53:09.412Z,100324.05
2017-08-01T06:55:37.054Z,100323.21
2017-08-01T06:58:04.575Z,100330.67
2017-08-01T07:00:32.028Z,100332.93
2017-08-01T07:03:01.465Z,100326.62
2017-08-01T07:05:28.903Z,100329.85
2017-08-01T07:07:56.359Z,100329.97
2017-08-01T07:10:23.816Z,100323.03
2017-08-01T07:12:51.262Z,100314.39
2017-08-01T07:15:18.673Z,100306.78
2017-08-01T07:17:46.071Z,100304.12
2017-08-01T07:20:13.522Z,100292.27
2017-08-01T07:22:41.152Z,100283.41
2017-08-01T07:25:08.582Z,100277.23
2017-08-01T07:27:37.688Z,100273.77
2017-08-01T07:30:05.105Z,100271.54
2017-08-01T07:32:32.546Z,100255.85
2017-08-01T07:35:00.013Z,100253.42
2017-08-01T07:37:27.450Z,100258.06
2017-08-01T07:39:54.832Z,100259.69
2017-08-01T07:42:22.273Z,100278.13
2017-08-01T07:44:49.719Z,100285.55
2017-08-01T07:47:17.142Z,100287.98
2017-08-01T07:49:44.827Z,100290.20
2017-08-01T07:52:12.243Z,100297.64
2017-08-01T07:54:39.680Z,100310.00
2017-08-01T07:57:07.132Z,100334.90
2017-08-01T07:59:34.586Z,100348.50
2017-08-01T08:02:01.997Z,100358.19
2017-08-01T08:04:29.519Z,100362.98
2017-08-01T08:06:58.703Z,100360.22
2017-08-01T08:09:26.247Z,100375.29
2017-08-01T08:11:53.802Z,100391.31
2017-08-01T08:14:21.807Z,100390.66
2017-08-01T08:16:49.202Z,100389.05
2017-08-01T08:19:17.192Z,100380.20
2017-08-01T08:21:44.616Z,100387.42
2017-08-01T08:24:12.026Z,100409.50
2017-08-01T08:26:39.811Z,100413.58
2017-08-01T08:29:07.215Z,100446.14
2017-08-01T08:31:34.647Z,100457.95
2017-08-01T08:34:02.136Z,100464.99
2017-08-01T08:36:29.731Z,100457.26
2017-08-01T08:38:58.450Z,100452.80
2017-08-01T08:41:26.550Z,100420.02
2017-08-01T08:43:54.512Z,100385.87
2017-08-01T08:46:22.222Z,100336.81
2017-08-01T08:48:49.763Z,100270.59
2017-08-01T08:51:17.239Z,100217.67
2017-08-01T08:53:44.646Z,100172.58
2017-08-01T08:56:12.107Z,100181.89
2017-08-01T08:58:41.330Z,100185.30
2017-08-01T09:01:08.724Z,100228.27
2017-08-01T09:03:36.123Z,100245.44
2017-08-01T09:06:03.685Z,100252.70
2017-08-01T09:08:31.097Z,100268.97
2017-08-01T09:10:58.498Z,100271.97
2017-08-01T09:13:25.894Z,100308.98
2017-08-01T09:15:53.294Z,100304.14
2017-08-01T09:18:20.850Z,100256.97
2017-08-01T09:20:48.258Z,100264.34
2017-08-01T09:23:15.669Z,100250.92
2017-08-01T09:25:43.074Z,100176.26
2017-08-01T09:28:10.478Z,100115.70
2017-08-01T09:30:37.906Z,100130.08
2017-08-01T09:33:05.362Z,100156.61
2017-08-01T09:35:32.794Z,100202.13
2017-08-01T09:38:00.209Z,100265.61
2017-08-01T09:40:27.615Z,100277.34
2017-08-01T09:42:55.203Z,100270.75
2017-08-01T09:45:22.586Z,100274.89
2017-08-01T09:47:49.995Z,100296.22
2017-08-01T09:50:17.397Z,100303.51
2017-08-01T09:52:44.816Z,100314.25
2017-08-01T09:55:12.414Z,100316.73
2017-08-01T09:57:39.814Z,100332.73
2017-08-01T10:00:07.219Z,100345.64
2017-08-01T10:02:34.626Z,100337.22
2017-08-01T10:05:02.237Z,100347.44
2017-08-01T10:07:29.796Z,100353.48
2017-08-01T10:09:57.190Z,100365.59
2017-08-01T10:12:24.585Z,100367.96
2017-08-01T10:14:51.986Z,100381.95
2017-08-01T10:17:19.393Z,100386.73
2017-08-01T10:19:46.813Z,100400.49
2017-08-01T10:22:14.295Z,100401.85
2017-08-01T10:24:41.698Z,100395.73
2017-08-01T10:27:09.106Z,100391.67
2017-08-01T10:29:36.515Z,100388.70
2017-08-01T10:32:03.923Z,100402.27
2017-08-01T10:34:31.345Z,100412.34
2017-08-01T10:36:59.033Z,100409.70
2017-08-01T10:39:26.409Z,100405.34
2017-08-01T10:41:53.801Z,100400.42
2017-08-01T10:44:21.207Z,100400.14
2017-08-01T10:46:48.662Z,100410.63
2017-08-01T10:49:28.562Z,100410.50
2017-08-01T10:51:55.950Z,100411.84
2017-08-01T10:54:23.350Z,100403.74
2017-08-01T10:56:50.762Z,100410.11
2017-08-01T10:59:18.166Z,100412.31
2017-08-01T11:01:45.613Z,100409.38
2017-08-01T11:04:12.995Z,100415.50
2017-08-01T11:06:40.402Z,100411.92
2017-08-01T11:09:07.806Z,100421.23
2017-08-01T11:11:35.434Z,100426.20
2017-08-01T11:14:03.238Z,100424.58
2017-08-01T11:16:31.254Z,100429.39
2017-08-01T11:18:58.650Z,100437.68
2017-08-01T11:21:26.058Z,100427.49
2017-08-01T11:23:53.667Z,100426.27
2017-08-01T11:26:21.557Z,100431.39
2017-08-01T11:28:48.937Z,100419.53
2017-08-01T11:31:16.334Z,100417.67
2017-08-01T11:33:43.734Z,100416.73
2017-08-01T11:36:11.130Z,100413.95
2017-08-01T11:38:38.534Z,100411.08
2017-08-01T11:41:05.935Z,100410.65
2017-08-01T11:43:33.783Z,100407.73
2017-08-01T11:46:01.174Z,100403.53
2017-08-01T11:48:28.640Z,100395.86
2017-08-01T11:50:56.037Z,100399.47
2017-08-01T11:53:23.438Z,100398.70
2017-08-01T11:55:50.986Z,100389.20
2017-08-01T11:58:18.394Z,100384.87
2017-08-01T12:00:45.783Z,100371.70
2017-08-01T12:03:13.187Z,100380.92
2017-08-01T12:05:40.583Z,100370.33
2017-08-01T12:08:08.086Z,100364.17
2017-08-01T12:10:36.333Z,100346.73
2017-08-01T12:13:03.734Z,100333.13
2017-08-01T12:15:31.134Z,100310.44
2017-08-01T12:17:58.526Z,100296.06
2017-08-01T12:20:26.031Z,100279.98
2017-08-01T12:22:53.429Z,100282.66
2017-08-01T12:25:20.819Z,100291.37
2017-08-01T12:27:48.214Z,100304.70
2017-08-01T12:30:15.610Z,100308.38
2017-08-01T12:32:43.396Z,100318.45
2017-08-01T12:35:10.799Z,100326.95
2017-08-01T12:37:38.201Z,100346.60
2017-08-01T12:40:05.608Z,100356.18
2017-08-01T12:42:33.015Z,100373.25
2017-08-01T12:45:00.564Z,100374.56
2017-08-01T12:47:27.971Z,100388.00
2017-08-01T12:49:55.367Z,100400.84
2017-08-01T12:52:22.778Z,100392.82
2017-08-01T12:54:50.180Z,100364.55
2017-08-01T12:57:17.740Z,100372.78
2017-08-01T12:59:45.186Z,100377.70
2017-08-01T13:02:12.587Z,100367.78
2017-08-01T13:04:39.996Z,100367.27
2017-08-01T13:07:07.399Z,100370.81
2017-08-01T13:09:34.956Z,100369.22
2017-08-01T13:12:02.352Z,100373.49
2017-08-01T13:14:29.759Z,100377.82
2017-08-01T13:16:57.164Z,100378.17
2017-08-01T13:19:24.567Z,100371.29
2017-08-01T13:21:51.991Z,100363.38
2017-08-01T13:24:19.399Z,100355.49
2017-08-01T13:26:46.799Z,100355.59
2017-08-01T13:29:14.209Z,100352.24
2017-08-01T13:31:41.607Z,100356.84
2017-08-01T13:34:09.051Z,100377.80
2017-08-01T13:36:36.455Z,100370.44
2017-08-01T13:39:03.858Z,100374.70
2017-08-01T13:41:31.263Z,100387.52
2017-08-01T13:43:58.671Z,100383.70
2017-08-01T13:46:26.120Z,100394.57
2017-08-01T13:48:53.515Z,100398.27
2017-08-01T13:51:20.943Z,100393.89
2017-08-01T13:53:51.867Z,100401.03
2017-08-01T13:56:19.263Z,100401.00
2017-08-01T13:58:46.820Z,100396.59
2017-08-01T14:01:14.239Z,100399.39
2017-08-01T14:03:41.662Z,100393.28
2017-08-01T14:06:09.066Z,100382.03
2017-08-01T14:08:36.463Z,100378.67
2017-08-01T14:11:03.975Z,100376.08
2017-08-01T14:13:31.424Z,100367.34
2017-08-01T14:15:58.842Z,100369.58
2017-08-01T14:18:26.263Z,100355.99
2017-08-01T14:20:53.687Z,100354.62
2017-08-01T14:23:21.098Z,100360.30
2017-08-01T14:25:48.519Z,100356.62
2017-08-01T14:28:15.940Z,100352.24
2017-08-01T14:30:43.423Z,100345.05
2017-08-01T14:33:10.875Z,100340.41
2017-08-01T14:35:38.544Z,100347.61
2017-08-01T14:38:05.944Z,100347.91
2017-08-01T14:40:33.351Z,100346.25
2017-08-01T14:43:00.759Z,100346.20
2017-08-01T14:45:28.160Z,100351.30
2017-08-01T14:47:55.600Z,100355.95
2017-08-01T14:50:23.000Z,100357.95
2017-08-01T14:52:50.408Z,100351.33
2017-08-01T14:55:17.811Z,100359.88
2017-08-01T14:57:45.211Z,100373.91
2017-08-01T15:00:13.095Z,100376.71
2017-08-01T15:02:40.491Z,100363.88
2017-08-01T15:05:07.891Z,100358.61
2017-08-01T15:07:35.299Z,100366.52
2017-08-01T15:10:02.704Z,100362.11
2017-08-01T15:12:30.131Z,100365.19
2017-08-01T15:14:57.526Z,100366.20
2017-08-01T15:17:24.948Z,100369.59
2017-08-01T15:19:52.354Z,100370.45
2017-08-01T15:22:19.762Z,100370.37
2017-08-01T15:24:55.045Z,100363.66
2017-08-01T15:27:22.465Z,100359.32
2017-08-01T15:29:49.891Z,100350.23
2017-08-01T15:32:17.303Z,100344.97
2017-08-01T15:34:44.716Z,100342.94
2017-08-01T15:37:12.139Z,100338.20
2017-08-01T15:39:39.547Z,100341.66
2017-08-01T15:42:06.983Z,100329.81
2017-08-01T15:44:34.491Z,100328.66
2017-08-01T15:47:01.899Z,100329.33
2017-08-01T15:49:29.404Z,100330.47
2017-08-01T15:51:56.806Z,100318.12
2017-08-01T15:54:24.207Z,100315.11
2017-08-01T15:56:51.610Z,100320.20
2017-08-01T15:59:19.016Z,100317.53
2017-08-01T16:01:46.419Z,100320.22
2017-08-01T16:04:13.820Z,100314.87
2017-08-01T16:06:41.606Z,100320.59
2017-08-01T16:09:09.009Z,100329.27
2017-08-01T16:11:36.414Z,100336.29
2017-08-01T16:14:03.823Z,100341.56
2017-08-01T16:16:31.226Z,100334.58
2017-08-01T16:18:58.952Z,100332.17
2017-08-01T16:21:26.348Z,100327.83
2017-08-01T16:23:53.748Z,100331.44
2017-08-01T16:26:21.146Z,100322.37
2017-08-01T16:28:48.551Z,100324.11
2017-08-01T16:31:16.063Z,100339.87
2017-08-01T16:33:43.459Z,100356.92
2017-08-01T16:36:11.048Z,100361.09
2017-08-01T16:38:38.469Z,100366.00
2017-08-01T16:41:05.860Z,100367.96
2017-08-01T16:43:33.670Z,100366.06
2017-08-01T16:46:01.087Z,100358.17
2017-08-01T16:48:28.538Z,100362.00
2017-08-01T16:50:55.943Z,100354.93
2017-08-01T16:53:23.400Z,100359.34
2017-08-01T16:55:50.843Z,100363.55
2017-08-01T16:58:18.239Z,100366.63
2017-08-01T17:00:45.639Z,100379.34
2017-08-01T17:03:13.043Z,100380.60
2017-08-01T17:05:40.457Z,100379.73
2017-08-01T17:08:07.999Z,100360.85
2017-08-01T17:10:36.308Z,100341.04
2017-08-01T17:13:03.702Z,100333.47
2017-08-01T17:15:31.107Z,100322.03
2017-08-01T17:17:58.505Z,100321.37
2017-08-01T17:20:26.898Z,100332.52
2017-08-01T17:22:54.298Z,100333.58
2017-08-01T17:25:21.702Z,100336.53
2017-08-01T17:27:49.118Z,100333.61
2017-08-01T17:30:16.521Z,100340.38
2017-08-01T17:32:43.926Z,100337.97
2017-08-01T17:35:11.330Z,100339.66
2017-08-01T17:37:38.722Z,100336.00
2017-08-01T17:40:06.118Z,100335.64
2017-08-01T17:42:33.518Z,100330.86
2017-08-01T17:45:00.975Z,100331.14
2017-08-01T17:47:28.371Z,100338.26
2017-08-01T17:49:55.771Z,100345.88
2017-08-01T17:52:23.171Z,100348.03
2017-08-01T17:54:50.569Z,100352.00
2017-08-01T17:57:17.998Z,100350.92
2017-08-01T17:59:45.390Z,100343.23
2017-08-01T18:02:12.786Z,100335.91
2017-08-01T18:04:40.194Z,100339.05
2017-08-01T18:07:07.593Z,100338.46
2017-08-01T18:09:35.039Z,100337.66
2017-08-01T18:12:02.448Z,100349.70
2017-08-01T18:14:29.835Z,100359.00
2017-08-01T18:16:58.160Z,100353.13
2017-08-01T18:19:25.563Z,100352.98
2017-08-01T18:21:53.014Z,100364.20
2017-08-01T18:24:20.414Z,100364.46
2017-08-01T18:26:47.817Z,100372.30
2017-08-01T18:29:15.326Z,100382.24
2017-08-01T18:31:42.726Z,100383.19
2017-08-01T18:34:10.131Z,100383.70
2017-08-01T18:36:37.535Z,100382.82
2017-08-01T18:39:04.935Z,100389.61
2017-08-01T18:41:32.340Z,100395.84
2017-08-01T18:43:59.765Z,100400.95
2017-08-01T18:46:27.163Z,100403.63
2017-08-01T18:48:54.571Z,100410.30
2017-08-01T18:51:22.017Z,100421.14
2017-08-01T18:53:49.420Z,100430.42
2017-08-01T18:56:16.843Z,100442.30
2017-08-01T18:58:44.242Z,100450.41
2017-08-01T19:01:11.695Z,100452.86
2017-08-01T19:03:39.101Z,100455.90
2017-08-01T19:06:06.508Z,100459.91
2017-08-01T19:08:33.907Z,100470.22
2017-08-01T19:11:01.410Z,100473.98
2017-08-01T19:13:28.926Z,100465.38
2017-08-01T19:15:56.326Z,100460.87
2017-08-01T19:18:23.722Z,100463.56
2017-08-01T19:20:51.222Z,100465.40
2017-08-01T19:23:18.622Z,100467.95
2017-08-01T19:25:46.054Z,100470.50
2017-08-01T19:28:13.454Z,100474.70
2017-08-01T19:30:40.855Z,100478.98
2017-08-01T19:33:08.254Z,100484.56
2017-08-01T19:35:35.645Z,100489.13
2017-08-01T19:38:03.042Z,100493.81
2017-08-01T19:40:30.447Z,100501.02
2017-08-01T19:42:57.881Z,100497.20
2017-08-01T19:45:25.515Z,100502.27
2017-08-01T19:47:53.690Z,100501.01
2017-08-01T19:50:21.090Z,100512.55
2017-08-01T19:52:48.492Z,100514.07
2017-08-01T19:55:15.898Z,100510.18
2017-08-01T19:57:43.295Z,100514.14
2017-08-01T20:00:10.687Z,100506.20
2017-08-01T20:02:38.087Z,100500.95
2017-08-01T20:05:05.487Z,100495.33
2017-08-01T20:07:32.924Z,100509.18
2017-08-01T20:10:00.327Z,100509.32
2017-08-01T20:12:27.722Z,100512.81
2017-08-01T20:14:55.124Z,100521.78
2017-08-01T20:17:22.522Z,100511.89
2017-08-01T20:19:49.927Z,100514.33
2017-08-01T20:22:17.318Z,100512.30
2017-08-01T20:24:44.748Z,100507.95
2017-08-01T20:27:12.179Z,100508.62
2017-08-01T20:29:39.624Z,100508.89
2017-08-01T20:32:07.026Z,100510.80
2017-08-01T20:34:34.422Z,100508.77
2017-08-01T20:37:01.827Z,100502.92
2017-08-01T20:39:29.226Z,100501.42
2017-08-01T20:41:56.635Z,100498.11
2017-08-01T20:44:24.044Z,100495.38
2017-08-01T20:46:51.459Z,100490.65
2017-08-01T20:49:19.229Z,100501.77
2017-08-01T20:51:46.659Z,100505.67
2017-08-01T20:54:14.068Z,100501.33
2017-08-01T20:56:41.500Z,100510.54
2017-08-01T20:59:08.924Z,100516.50
2017-08-01T21:01:36.507Z,100513.50
2017-08-01T21:04:03.895Z,100512.55
2017-08-01T21:06:31.332Z,100511.33
2017-08-01T21:08:58.743Z,100515.24
2017-08-01T21:11:26.162Z,100520.62
2017-08-01T21:13:53.710Z,100519.92
2017-08-01T21:16:21.093Z,100518.83
2017-08-01T21:18:48.494Z,100510.83
2017-08-01T21:21:15.906Z,100511.22
2017-08-01T21:23:43.319Z,100507.79
2017-08-01T21:26:10.874Z,100512.75
2017-08-01T21:28:38.277Z,100515.69
2017-08-01T21:31:05.679Z,100517.27
2017-08-01T21:33:33.083Z,100515.70
2017-08-01T21:36:00.507Z,100517.38
2017-08-01T21:38:27.958Z,100516.66
2017-08-01T21:40:55.363Z,100515.16
2017-08-01T21:43:22.765Z,100516.23
2017-08-01T21:45:50.174Z,100522.30
2017-08-01T21:48:17.566Z,100524.30
2017-08-01T21:50:45.130Z,100519.94
2017-08-01T21:53:12.549Z,100529.80
2017-08-01T21:55:39.994Z,100527.89
2017-08-01T21:58:07.410Z,100528.00
2017-08-01T22:00:34.823Z,100531.36
2017-08-01T22:03:02.379Z,100526.48
2017-08-01T22:05:29.782Z,100529.55
2017-08-01T22:07:57.178Z,100530.90
2017-08-01T22:10:24.587Z,100533.57
2017-08-01T22:12:52.001Z,100541.38
2017-08-01T22:15:19.623Z,100543.62
2017-08-01T22:17:47.022Z,100539.55
2017-08-01T22:20:14.435Z,100540.80
2017-08-01T22:22:41.854Z,100545.30
2017-08-01T22:25:09.255Z,100545.37
2017-08-01T22:27:36.651Z,100547.77
2017-08-01T22:30:04.079Z,100548.14
2017-08-01T22:32:31.489Z,100548.69
2017-08-01T22:34:58.902Z,100549.59
2017-08-01T22:37:26.307Z,100553.98
2017-08-01T22:39:53.711Z,100557.31
2017-08-01T22:42:21.111Z,100560.25
2017-08-01T22:44:48.522Z,100566.69
2017-08-01T22:47:15.914Z,100563.53
2017-08-01T22:49:43.323Z,100563.11
2017-08-01T22:52:10.731Z,100560.92
2017-08-01T22:54:38.135Z,100566.43
2017-08-01T22:57:05.531Z,100566.14
2017-08-01T22:59:32.958Z,100572.13
2017-08-01T23:02:00.391Z,100571.00
2017-08-01T23:04:27.801Z,100573.48
2017-08-01T23:06:55.202Z,100576.17
2017-08-01T23:09:22.599Z,100578.41
2017-08-01T23:11:49.998Z,100580.05
2017-08-01T23:14:17.580Z,100574.45
2017-08-01T23:16:44.963Z,100582.96
2017-08-01T23:19:12.370Z,100578.55
2017-08-01T23:21:39.791Z,100584.17
2017-08-01T23:24:07.197Z,100584.45
2017-08-01T23:26:34.754Z,100580.13
2017-08-01T23:29:02.162Z,100580.22
2017-08-01T23:31:29.609Z,100583.42
2017-08-01T23:33:57.022Z,100588.49
2017-08-01T23:36:24.427Z,100584.95
2017-08-01T23:38:52.007Z,100591.00
2017-08-01T23:41:19.422Z,100594.20
2017-08-01T23:43:46.832Z,100596.34
2017-08-01T23:46:14.255Z,100596.05
2017-08-01T23:48:41.651Z,100593.88
2017-08-01T23:51:09.075Z,100595.98
2017-08-01T23:53:36.471Z,100595.37
2017-08-01T23:56:03.882Z,100596.00
2017-08-01T23:58:31.296Z,100588.32
